sensor_id;sensor_type;location;lat;lon;timestamp;pressure;altitude;pressure_sealevel;temperature
15607;BMP180;7865;50.918;4.510;2022-11-15T00:00:58;100255.00;;;11.10
15607;BMP180;7865;50.918;4.510;2022-11-15T00:06:19;100249.00;;;11.10
15607;BMP180;7865;50.918;4.510;2022-11-15T00:11:39;100250.00;;;11.20
15607;BMP180;7865;50.918;4.510;2022-11-15T00:17:00;100255.00;;;11.30
15607;BMP180;7865;50.918;4.510;2022-11-15T00:22:21;100257.00;;;11.30
15607;BMP180;7865;50.918;4.510;2022-11-15T00:27:41;100253.00;;;11.30
15607;BMP180;7865;50.918;4.510;2022-11-15T00:33:06;100252.00;;;11.30
15607;BMP180;7865;50.918;4.510;2022-11-15T00:38:31;100270.00;;;11.30
15607;BMP180;7865;50.918;4.510;2022-11-15T00:43:51;100273.00;;;11.30
15607;BMP180;7865;50.918;4.510;2022-11-15T00:49:12;100269.00;;;11.30
15607;BMP180;7865;50.918;4.510;2022-11-15T00:54:32;100268.00;;;11.40
15607;BMP180;7865;50.918;4.510;2022-11-15T00:59:53;100278.00;;;11.40
15607;BMP180;7865;50.918;4.510;2022-11-15T01:05:13;100266.00;;;11.50
15607;BMP180;7865;50.918;4.510;2022-11-15T01:10:34;100266.00;;;11.50
15607;BMP180;7865;50.918;4.510;2022-11-15T01:15:55;100263.00;;;11.60
15607;BMP180;7865;50.918;4.510;2022-11-15T01:21:18;100262.00;;;11.60
15607;BMP180;7865;50.918;4.510;2022-11-15T01:26:39;100259.00;;;11.60
15607;BMP180;7865;50.918;4.510;2022-11-15T01:31:59;100261.00;;;11.60
15607;BMP180;7865;50.918;4.510;2022-11-15T01:37:20;100253.00;;;11.60
15607;BMP180;7865;50.918;4.510;2022-11-15T01:42:40;100244.00;;;11.60
15607;BMP180;7865;50.918;4.510;2022-11-15T01:48:01;100229.00;;;11.50
15607;BMP180;7865;50.918;4.510;2022-11-15T01:53:23;100233.00;;;11.50
15607;BMP180;7865;50.918;4.510;2022-11-15T01:58:45;100241.00;;;11.60
15607;BMP180;7865;50.918;4.510;2022-11-15T02:04:16;100235.00;;;11.60
15607;BMP180;7865;50.918;4.510;2022-11-15T02:09:38;100233.00;;;11.60
15607;BMP180;7865;50.918;4.510;2022-11-15T02:14:59;100238.00;;;11.60
15607;BMP180;7865;50.918;4.510;2022-11-15T02:20:47;100220.00;;;11.60
15607;BMP180;7865;50.918;4.510;2022-11-15T02:32:35;100198.00;;;11.50
15607;BMP180;7865;50.918;4.510;2022-11-15T02:38:07;100196.00;;;11.50
15607;BMP180;7865;50.918;4.510;2022-11-15T02:49:18;100180.00;;;11.40
15607;BMP180;7865;50.918;4.510;2022-11-15T02:54:39;100188.00;;;11.30
15607;BMP180;7865;50.918;4.510;2022-11-15T03:00:23;100186.00;;;11.40
15607;BMP180;7865;50.918;4.510;2022-11-15T03:11:17;100177.00;;;11.50
15607;BMP180;7865;50.918;4.510;2022-11-15T03:22:19;100177.00;;;11.50
15607;BMP180;7865;50.918;4.510;2022-11-15T03:27:43;100180.00;;;11.40
15607;BMP180;7865;50.918;4.510;2022-11-15T03:33:08;100186.00;;;11.40
15607;BMP180;7865;50.918;4.510;2022-11-15T03:38:30;100185.00;;;11.40
15607;BMP180;7865;50.918;4.510;2022-11-15T03:44:20;100185.00;;;11.40
15607;BMP180;7865;50.918;4.510;2022-11-15T03:49:44;100182.00;;;11.40
15607;BMP180;7865;50.918;4.510;2022-11-15T03:55:10;100185.00;;;11.40
15607;BMP180;7865;50.918;4.510;2022-11-15T04:00:31;100180.00;;;11.30
15607;BMP180;7865;50.918;4.510;2022-11-15T04:05:51;100180.00;;;11.30
15607;BMP180;7865;50.918;4.510;2022-11-15T04:11:12;100177.00;;;11.30
15607;BMP180;7865;50.918;4.510;2022-11-15T04:16:32;100180.00;;;11.30
15607;BMP180;7865;50.918;4.510;2022-11-15T04:21:53;100182.00;;;11.20
15607;BMP180;7865;50.918;4.510;2022-11-15T04:27:32;100188.00;;;11.10
15607;BMP180;7865;50.918;4.510;2022-11-15T04:32:52;100167.00;;;11.10
15607;BMP180;7865;50.918;4.510;2022-11-15T04:38:13;100171.00;;;11.00
15607;BMP180;7865;50.918;4.510;2022-11-15T04:43:33;100174.00;;;10.90
15607;BMP180;7865;50.918;4.510;2022-11-15T04:48:54;100180.00;;;10.90
15607;BMP180;7865;50.918;4.510;2022-11-15T04:54:18;100168.00;;;10.80
15607;BMP180;7865;50.918;4.510;2022-11-15T04:59:39;100172.00;;;10.70
15607;BMP180;7865;50.918;4.510;2022-11-15T05:04:59;100173.00;;;10.60
15607;BMP180;7865;50.918;4.510;2022-11-15T05:10:20;100171.00;;;10.40
15607;BMP180;7865;50.918;4.510;2022-11-15T05:15:40;100172.00;;;10.40
15607;BMP180;7865;50.918;4.510;2022-11-15T05:21:05;100175.00;;;10.30
15607;BMP180;7865;50.918;4.510;2022-11-15T05:26:26;100171.00;;;10.20
15607;BMP180;7865;50.918;4.510;2022-11-15T05:31:47;100172.00;;;10.10
15607;BMP180;7865;50.918;4.510;2022-11-15T05:37:08;100172.00;;;10.00
15607;BMP180;7865;50.918;4.510;2022-11-15T05:42:29;100175.00;;;10.00
15607;BMP180;7865;50.918;4.510;2022-11-15T05:47:51;100173.00;;;9.90
15607;BMP180;7865;50.918;4.510;2022-11-15T05:53:16;100160.00;;;9.90
15607;BMP180;7865;50.918;4.510;2022-11-15T05:58:39;100166.00;;;9.80
15607;BMP180;7865;50.918;4.510;2022-11-15T06:03:59;100175.00;;;9.70
15607;BMP180;7865;50.918;4.510;2022-11-15T06:09:20;100186.00;;;9.50
15607;BMP180;7865;50.918;4.510;2022-11-15T06:14:40;100171.00;;;9.60
15607;BMP180;7865;50.918;4.510;2022-11-15T06:20:01;100173.00;;;9.60
15607;BMP180;7865;50.918;4.510;2022-11-15T06:25:22;100177.00;;;9.50
15607;BMP180;7865;50.918;4.510;2022-11-15T06:30:42;100164.00;;;9.40
15607;BMP180;7865;50.918;4.510;2022-11-15T06:36:09;100163.00;;;9.10
15607;BMP180;7865;50.918;4.510;2022-11-15T06:41:36;100168.00;;;9.00
15607;BMP180;7865;50.918;4.510;2022-11-15T06:46:57;100160.00;;;8.80
15607;BMP180;7865;50.918;4.510;2022-11-15T06:52:17;100168.00;;;8.70
15607;BMP180;7865;50.918;4.510;2022-11-15T06:57:47;100177.00;;;8.70
15607;BMP180;7865;50.918;4.510;2022-11-15T07:03:08;100179.00;;;8.60
15607;BMP180;7865;50.918;4.510;2022-11-15T07:08:29;100177.00;;;8.60
15607;BMP180;7865;50.918;4.510;2022-11-15T07:13:50;100192.00;;;8.60
15607;BMP180;7865;50.918;4.510;2022-11-15T07:19:10;100191.00;;;8.60
15607;BMP180;7865;50.918;4.510;2022-11-15T07:24:31;100177.00;;;8.70
15607;BMP180;7865;50.918;4.510;2022-11-15T07:29:52;100172.00;;;8.80
15607;BMP180;7865;50.918;4.510;2022-11-15T07:35:12;100171.00;;;9.00
15607;BMP180;7865;50.918;4.510;2022-11-15T07:40:33;100185.00;;;9.10
15607;BMP180;7865;50.918;4.510;2022-11-15T07:45:53;100176.00;;;9.20
15607;BMP180;7865;50.918;4.510;2022-11-15T07:51:19;100172.00;;;9.30
15607;BMP180;7865;50.918;4.510;2022-11-15T07:56:39;100178.00;;;9.50
15607;BMP180;7865;50.918;4.510;2022-11-15T08:02:00;100167.00;;;9.60
15607;BMP180;7865;50.918;4.510;2022-11-15T08:07:21;100160.00;;;9.80
15607;BMP180;7865;50.918;4.510;2022-11-15T08:12:42;100147.00;;;9.90
15607;BMP180;7865;50.918;4.510;2022-11-15T08:18:12;100136.00;;;10.10
15607;BMP180;7865;50.918;4.510;2022-11-15T08:23:33;100122.00;;;10.20
15607;BMP180;7865;50.918;4.510;2022-11-15T08:28:54;100125.00;;;10.50
15607;BMP180;7865;50.918;4.510;2022-11-15T08:34:14;100105.00;;;11.00
15607;BMP180;7865;50.918;4.510;2022-11-15T08:39:35;100099.00;;;11.20
15607;BMP180;7865;50.918;4.510;2022-11-15T08:44:56;100097.00;;;11.50
15607;BMP180;7865;50.918;4.510;2022-11-15T08:50:16;100090.00;;;11.50
15607;BMP180;7865;50.918;4.510;2022-11-15T08:55:37;100098.00;;;11.60
15607;BMP180;7865;50.918;4.510;2022-11-15T09:00:58;100092.00;;;11.70
15607;BMP180;7865;50.918;4.510;2022-11-15T09:06:19;100096.00;;;12.00
15607;BMP180;7865;50.918;4.510;2022-11-15T09:11:39;100099.00;;;12.40
15607;BMP180;7865;50.918;4.510;2022-11-15T09:17:00;100099.00;;;12.70
15607;BMP180;7865;50.918;4.510;2022-11-15T09:22:21;100099.00;;;12.70
15607;BMP180;7865;50.918;4.510;2022-11-15T09:27:41;100095.00;;;12.50
15607;BMP180;7865;50.918;4.510;2022-11-15T09:33:12;100081.00;;;12.30
15607;BMP180;7865;50.918;4.510;2022-11-15T09:38:32;100075.00;;;12.90
15607;BMP180;7865;50.918;4.510;2022-11-15T09:44:11;100088.00;;;13.10
15607;BMP180;7865;50.918;4.510;2022-11-15T09:49:33;100092.00;;;13.20
15607;BMP180;7865;50.918;4.510;2022-11-15T09:54:52;100084.00;;;13.20
15607;BMP180;7865;50.918;4.510;2022-11-15T10:00:08;100080.00;;;13.30
15607;BMP180;7865;50.918;4.510;2022-11-15T10:05:31;100069.00;;;13.40
15607;BMP180;7865;50.918;4.510;2022-11-15T10:11:01;100062.00;;;13.60
15607;BMP180;7865;50.918;4.510;2022-11-15T10:16:34;100054.00;;;14.00
15607;BMP180;7865;50.918;4.510;2022-11-15T10:21:51;100049.00;;;13.90
15607;BMP180;7865;50.918;4.510;2022-11-15T10:26:55;100024.00;;;14.10
15607;BMP180;7865;50.918;4.510;2022-11-15T10:31:57;100029.00;;;14.30
15607;BMP180;7865;50.918;4.510;2022-11-15T10:37:00;100019.00;;;14.60
15607;BMP180;7865;50.918;4.510;2022-11-15T10:47:24;99987.00;;;14.00
15607;BMP180;7865;50.918;4.510;2022-11-15T10:52:28;99975.00;;;14.00
15607;BMP180;7865;50.918;4.510;2022-11-15T10:57:33;99965.00;;;13.90
15607;BMP180;7865;50.918;4.510;2022-11-15T11:02:40;99956.00;;;13.90
15607;BMP180;7865;50.918;4.510;2022-11-15T11:07:56;99949.00;;;13.90
15607;BMP180;7865;50.918;4.510;2022-11-15T11:13:37;99943.00;;;13.90
15607;BMP180;7865;50.918;4.510;2022-11-15T11:24:34;99919.00;;;14.10
15607;BMP180;7865;50.918;4.510;2022-11-15T11:41:29;99896.00;;;14.60
15607;BMP180;7865;50.918;4.510;2022-11-15T11:46:54;99884.00;;;15.10
15607;BMP180;7865;50.918;4.510;2022-11-15T11:52:07;99877.00;;;15.00
15607;BMP180;7865;50.918;4.510;2022-11-15T12:02:50;99860.00;;;14.40
15607;BMP180;7865;50.918;4.510;2022-11-15T12:08:33;99845.00;;;14.20
15607;BMP180;7865;50.918;4.510;2022-11-15T12:13:38;99839.00;;;14.20
15607;BMP180;7865;50.918;4.510;2022-11-15T12:18:44;99828.00;;;14.10
15607;BMP180;7865;50.918;4.510;2022-11-15T12:23:51;99818.00;;;14.00
15607;BMP180;7865;50.918;4.510;2022-11-15T12:28:58;99807.00;;;14.00
15607;BMP180;7865;50.918;4.510;2022-11-15T12:45:35;99765.00;;;13.90
15607;BMP180;7865;50.918;4.510;2022-11-15T13:01:07;99738.00;;;14.10
15607;BMP180;7865;50.918;4.510;2022-11-15T13:06:33;99726.00;;;14.40
15607;BMP180;7865;50.918;4.510;2022-11-15T13:11:47;99715.00;;;14.60
15607;BMP180;7865;50.918;4.510;2022-11-15T13:16:57;99703.00;;;14.80
15607;BMP180;7865;50.918;4.510;2022-11-15T13:22:05;99684.00;;;14.90
15607;BMP180;7865;50.918;4.510;2022-11-15T13:27:29;99682.00;;;14.60
15607;BMP180;7865;50.918;4.510;2022-11-15T13:32:31;99664.00;;;14.20
15607;BMP180;7865;50.918;4.510;2022-11-15T13:37:33;99664.00;;;13.90
15607;BMP180;7865;50.918;4.510;2022-11-15T13:42:36;99649.00;;;13.70
15607;BMP180;7865;50.918;4.510;2022-11-15T13:47:51;99638.00;;;13.70
15607;BMP180;7865;50.918;4.510;2022-11-15T13:52:53;99633.00;;;13.70
15607;BMP180;7865;50.918;4.510;2022-11-15T13:58:00;99620.00;;;13.70
15607;BMP180;7865;50.918;4.510;2022-11-15T14:03:24;99616.00;;;13.70
15607;BMP180;7865;50.918;4.510;2022-11-15T14:08:26;99607.00;;;13.70
15607;BMP180;7865;50.918;4.510;2022-11-15T14:13:30;99598.00;;;13.70
15607;BMP180;7865;50.918;4.510;2022-11-15T14:18:48;99590.00;;;13.60
15607;BMP180;7865;50.918;4.510;2022-11-15T14:23:50;99595.00;;;13.50
15607;BMP180;7865;50.918;4.510;2022-11-15T14:28:53;99583.00;;;13.30
15607;BMP180;7865;50.918;4.510;2022-11-15T14:33:55;99584.00;;;13.10
15607;BMP180;7865;50.918;4.510;2022-11-15T14:38:56;99575.00;;;12.90
15607;BMP180;7865;50.918;4.510;2022-11-15T14:43:59;99574.00;;;12.80
15607;BMP180;7865;50.918;4.510;2022-11-15T14:49:01;99567.00;;;12.80
15607;BMP180;7865;50.918;4.510;2022-11-15T14:54:03;99550.00;;;12.70
15607;BMP180;7865;50.918;4.510;2022-11-15T14:59:05;99556.00;;;12.60
15607;BMP180;7865;50.918;4.510;2022-11-15T15:04:09;99544.00;;;12.60
15607;BMP180;7865;50.918;4.510;2022-11-15T15:09:11;99542.00;;;12.60
15607;BMP180;7865;50.918;4.510;2022-11-15T15:14:14;99529.00;;;12.50
15607;BMP180;7865;50.918;4.510;2022-11-15T15:19:15;99527.00;;;12.40
15607;BMP180;7865;50.918;4.510;2022-11-15T15:24:18;99522.00;;;12.30
15607;BMP180;7865;50.918;4.510;2022-11-15T15:29:19;99515.00;;;12.10
15607;BMP180;7865;50.918;4.510;2022-11-15T15:34:21;99505.00;;;12.00
15607;BMP180;7865;50.918;4.510;2022-11-15T15:39:23;99504.00;;;11.90
15607;BMP180;7865;50.918;4.510;2022-11-15T15:44:25;99496.00;;;11.80
15607;BMP180;7865;50.918;4.510;2022-11-15T15:49:27;99502.00;;;11.70
15607;BMP180;7865;50.918;4.510;2022-11-15T15:54:29;99496.00;;;11.70
15607;BMP180;7865;50.918;4.510;2022-11-15T15:59:31;99500.00;;;11.60
15607;BMP180;7865;50.918;4.510;2022-11-15T16:04:33;99505.00;;;11.50
15607;BMP180;7865;50.918;4.510;2022-11-15T16:09:35;99491.00;;;11.50
15607;BMP180;7865;50.918;4.510;2022-11-15T16:14:56;99484.00;;;11.50
15607;BMP180;7865;50.918;4.510;2022-11-15T16:19:59;99476.00;;;11.50
15607;BMP180;7865;50.918;4.510;2022-11-15T16:25:01;99481.00;;;11.40
15607;BMP180;7865;50.918;4.510;2022-11-15T16:30:03;99475.00;;;11.40
15607;BMP180;7865;50.918;4.510;2022-11-15T16:35:06;99475.00;;;11.40
15607;BMP180;7865;50.918;4.510;2022-11-15T16:40:28;99472.00;;;11.40
15607;BMP180;7865;50.918;4.510;2022-11-15T16:45:33;99480.00;;;11.40
15607;BMP180;7865;50.918;4.510;2022-11-15T16:50:35;99483.00;;;11.40
15607;BMP180;7865;50.918;4.510;2022-11-15T16:55:40;99476.00;;;11.40
15607;BMP180;7865;50.918;4.510;2022-11-15T17:00:42;99485.00;;;11.40
15607;BMP180;7865;50.918;4.510;2022-11-15T17:05:44;99476.00;;;11.40
15607;BMP180;7865;50.918;4.510;2022-11-15T17:10:46;99475.00;;;11.50
15607;BMP180;7865;50.918;4.510;2022-11-15T17:15:48;99469.00;;;11.50
15607;BMP180;7865;50.918;4.510;2022-11-15T17:20:49;99468.00;;;11.50
15607;BMP180;7865;50.918;4.510;2022-11-15T17:25:59;99465.00;;;11.50
15607;BMP180;7865;50.918;4.510;2022-11-15T17:31:22;99459.00;;;11.50
15607;BMP180;7865;50.918;4.510;2022-11-15T17:36:25;99450.00;;;11.50
15607;BMP180;7865;50.918;4.510;2022-11-15T17:41:28;99451.00;;;11.50
15607;BMP180;7865;50.918;4.510;2022-11-15T17:46:30;99454.00;;;11.50
15607;BMP180;7865;50.918;4.510;2022-11-15T17:51:33;99444.00;;;11.50
15607;BMP180;7865;50.918;4.510;2022-11-15T17:56:37;99439.00;;;11.50
15607;BMP180;7865;50.918;4.510;2022-11-15T18:01:40;99440.00;;;11.50
15607;BMP180;7865;50.918;4.510;2022-11-15T18:06:42;99431.00;;;11.50
15607;BMP180;7865;50.918;4.510;2022-11-15T18:11:43;99431.00;;;11.50
15607;BMP180;7865;50.918;4.510;2022-11-15T18:16:51;99418.00;;;11.50
15607;BMP180;7865;50.918;4.510;2022-11-15T18:21:54;99413.00;;;11.50
15607;BMP180;7865;50.918;4.510;2022-11-15T18:27:01;99415.00;;;11.50
15607;BMP180;7865;50.918;4.510;2022-11-15T18:32:04;99411.00;;;11.50
15607;BMP180;7865;50.918;4.510;2022-11-15T18:37:12;99413.00;;;11.50
15607;BMP180;7865;50.918;4.510;2022-11-15T18:42:13;99396.00;;;11.60
15607;BMP180;7865;50.918;4.510;2022-11-15T18:47:15;99404.00;;;11.60
15607;BMP180;7865;50.918;4.510;2022-11-15T18:52:17;99407.00;;;11.60
15607;BMP180;7865;50.918;4.510;2022-11-15T18:57:19;99397.00;;;11.70
15607;BMP180;7865;50.918;4.510;2022-11-15T19:02:21;99389.00;;;11.70
15607;BMP180;7865;50.918;4.510;2022-11-15T19:07:23;99383.00;;;11.70
15607;BMP180;7865;50.918;4.510;2022-11-15T19:12:24;99394.00;;;11.70
15607;BMP180;7865;50.918;4.510;2022-11-15T19:17:27;99386.00;;;11.70
15607;BMP180;7865;50.918;4.510;2022-11-15T19:22:28;99380.00;;;11.70
15607;BMP180;7865;50.918;4.510;2022-11-15T19:27:30;99375.00;;;11.60
15607;BMP180;7865;50.918;4.510;2022-11-15T19:32:38;99360.00;;;11.60
15607;BMP180;7865;50.918;4.510;2022-11-15T19:37:40;99360.00;;;11.60
15607;BMP180;7865;50.918;4.510;2022-11-15T19:42:42;99354.00;;;11.60
15607;BMP180;7865;50.918;4.510;2022-11-15T19:47:44;99366.00;;;11.60
15607;BMP180;7865;50.918;4.510;2022-11-15T19:52:45;99362.00;;;11.60
15607;BMP180;7865;50.918;4.510;2022-11-15T19:57:47;99352.00;;;11.70
15607;BMP180;7865;50.918;4.510;2022-11-15T20:02:49;99352.00;;;11.70
15607;BMP180;7865;50.918;4.510;2022-11-15T20:07:51;99363.00;;;11.70
15607;BMP180;7865;50.918;4.510;2022-11-15T20:12:53;99355.00;;;11.70
15607;BMP180;7865;50.918;4.510;2022-11-15T20:17:55;99346.00;;;11.70
15607;BMP180;7865;50.918;4.510;2022-11-15T20:22:57;99338.00;;;11.70
15607;BMP180;7865;50.918;4.510;2022-11-15T20:28:04;99346.00;;;11.70
15607;BMP180;7865;50.918;4.510;2022-11-15T20:33:07;99329.00;;;11.70
15607;BMP180;7865;50.918;4.510;2022-11-15T20:38:10;99333.00;;;11.70
15607;BMP180;7865;50.918;4.510;2022-11-15T20:43:14;99322.00;;;11.70
15607;BMP180;7865;50.918;4.510;2022-11-15T20:48:16;99321.00;;;11.70
15607;BMP180;7865;50.918;4.510;2022-11-15T20:53:18;99324.00;;;11.70
15607;BMP180;7865;50.918;4.510;2022-11-15T20:58:21;99313.00;;;11.70
15607;BMP180;7865;50.918;4.510;2022-11-15T21:03:22;99310.00;;;11.70
15607;BMP180;7865;50.918;4.510;2022-11-15T21:08:24;99306.00;;;11.70
15607;BMP180;7865;50.918;4.510;2022-11-15T21:13:26;99299.00;;;11.70
15607;BMP180;7865;50.918;4.510;2022-11-15T21:18:29;99297.00;;;11.70
15607;BMP180;7865;50.918;4.510;2022-11-15T21:23:32;99298.00;;;11.70
15607;BMP180;7865;50.918;4.510;2022-11-15T21:28:34;99294.00;;;11.70
15607;BMP180;7865;50.918;4.510;2022-11-15T21:33:36;99273.00;;;11.70
15607;BMP180;7865;50.918;4.510;2022-11-15T21:38:38;99277.00;;;11.70
15607;BMP180;7865;50.918;4.510;2022-11-15T21:43:40;99278.00;;;11.70
15607;BMP180;7865;50.918;4.510;2022-11-15T21:48:42;99277.00;;;11.70
15607;BMP180;7865;50.918;4.510;2022-11-15T21:53:44;99280.00;;;11.70
15607;BMP180;7865;50.918;4.510;2022-11-15T21:58:46;99272.00;;;11.70
15607;BMP180;7865;50.918;4.510;2022-11-15T22:03:48;99277.00;;;11.80
15607;BMP180;7865;50.918;4.510;2022-11-15T22:08:50;99270.00;;;11.80
15607;BMP180;7865;50.918;4.510;2022-11-15T22:13:52;99261.00;;;11.80
15607;BMP180;7865;50.918;4.510;2022-11-15T22:18:53;99255.00;;;11.80
15607;BMP180;7865;50.918;4.510;2022-11-15T22:23:55;99253.00;;;11.70
15607;BMP180;7865;50.918;4.510;2022-11-15T22:28:57;99245.00;;;11.70
15607;BMP180;7865;50.918;4.510;2022-11-15T22:33:59;99251.00;;;11.80
15607;BMP180;7865;50.918;4.510;2022-11-15T22:39:01;99261.00;;;11.70
15607;BMP180;7865;50.918;4.510;2022-11-15T22:44:03;99245.00;;;11.70
15607;BMP180;7865;50.918;4.510;2022-11-15T22:49:05;99232.00;;;11.70
15607;BMP180;7865;50.918;4.510;2022-11-15T22:54:09;99238.00;;;11.70
15607;BMP180;7865;50.918;4.510;2022-11-15T22:59:11;99259.00;;;11.70
15607;BMP180;7865;50.918;4.510;2022-11-15T23:04:13;99254.00;;;11.70
15607;BMP180;7865;50.918;4.510;2022-11-15T23:09:14;99243.00;;;11.70
15607;BMP180;7865;50.918;4.510;2022-11-15T23:14:17;99239.00;;;11.70
15607;BMP180;7865;50.918;4.510;2022-11-15T23:19:19;99240.00;;;11.80
15607;BMP180;7865;50.918;4.510;2022-11-15T23:24:21;99247.00;;;11.80
15607;BMP180;7865;50.918;4.510;2022-11-15T23:29:25;99245.00;;;11.80
15607;BMP180;7865;50.918;4.510;2022-11-15T23:34:27;99239.00;;;11.80
15607;BMP180;7865;50.918;4.510;2022-11-15T23:39:30;99242.00;;;11.80
15607;BMP180;7865;50.918;4.510;2022-11-15T23:44:32;99252.00;;;11.80
15607;BMP180;7865;50.918;4.510;2022-11-15T23:49:34;99257.00;;;11.80
15607;BMP180;7865;50.918;4.510;2022-11-15T23:54:36;99258.00;;;11.80
15607;BMP180;7865;50.918;4.510;2022-11-15T23:59:39;99252.00;;;11.80
